Time;durP1;ratioP1;P1;durP2;ratioP2;P2;SDS_P1;SDS_P2;PMS_P1;PMS_P2;Temp;Humidity;BMP_temperature;BMP_pressure;BME280_temperature;BME280_humidity;BME280_pressure;Samples;Min_cycle;Max_cycle;Signal;HPM_P1;HPM_P2
2023/07/14 00:01:56;;;;;;;;;23.67;23.67;;;;;22.98;48.93;101036.72;4854987;29;45389;-86
2023/07/14 00:04:28;;;;;;;;;18.33;17.67;;;;;23.04;49.49;101025.72;4872083;29;45347;-87
2023/07/14 00:06:54;;;;;;;;;16.67;15.33;;;;;22.89;49.61;101021.66;4871720;29;45274;-86
2023/07/14 00:12:43;;;;;;;;;22.67;22.67;;;;;23.01;49.10;101024.91;4875697;29;45748;-85
2023/07/14 00:15:09;;;;;;;;;24.67;22.33;;;;;22.97;49.20;101013.28;4876014;29;45226;-87
2023/07/14 00:17:34;;;;;;;;;24.33;23.67;;;;;22.97;49.31;101010.56;4861212;29;45422;-86
2023/07/14 00:19:59;;;;;;;;;29.67;28.33;;;;;22.96;49.45;101016.91;4859952;29;47628;-86
2023/07/14 00:22:25;;;;;;;;;30.33;26.00;;;;;22.92;49.43;101016.13;4859276;29;45512;-86
2023/07/14 00:24:54;;;;;;;;;27.67;27.67;;;;;22.91;49.82;101017.06;4859694;29;45396;-86
2023/07/14 00:27:21;;;;;;;;;30.67;30.00;;;;;22.89;50.14;101016.25;4875131;29;45276;-86
2023/07/14 00:29:47;;;;;;;;;31.33;27.67;;;;;22.82;49.86;101016.47;4857608;29;47570;-86
2023/07/14 00:32:19;;;;;;;;;36.00;31.67;;;;;22.85;50.41;101014.56;4875151;29;45368;-85
2023/07/14 00:34:45;;;;;;;;;29.00;28.33;;;;;22.81;50.22;101012.00;4858277;29;45402;-86
2023/07/14 00:37:11;;;;;;;;;30.00;26.00;;;;;22.76;50.74;101010.34;4859475;29;45486;-86
2023/07/14 00:39:37;;;;;;;;;30.67;30.00;;;;;22.73;50.72;101012.25;4858582;29;47049;-86
2023/07/14 00:42:07;;;;;;;;;33.67;30.67;;;;;22.67;51.29;101010.63;4875307;29;45577;-86
2023/07/14 00:44:34;;;;;;;;;22.67;22.33;;;;;22.67;50.82;101004.31;4859514;29;45471;-86
2023/07/14 00:46:59;;;;;;;;;23.00;22.00;;;;;22.68;50.96;101001.56;4875223;29;45518;-85
2023/07/14 00:49:33;;;;;;;;;22.33;21.00;;;;;22.72;51.01;100999.63;4875894;29;46179;-86
2023/07/14 00:52:06;;;;;;;;;20.33;19.33;;;;;22.75;51.14;101003.13;4858520;29;45914;-85
2023/07/14 00:54:32;;;;;;;;;23.67;23.67;;;;;22.65;51.12;100993.50;4858730;29;45277;-86
2023/07/14 00:56:57;;;;;;;;;20.33;20.33;;;;;22.65;51.67;100992.63;4874850;29;45460;-86
2023/07/14 00:59:48;;;;;;;;;18.67;17.67;;;;;22.72;51.17;100991.47;4873440;29;45462;-87
2023/07/14 01:02:19;;;;;;;;;16.00;15.67;;;;;22.66;51.54;100986.25;4858144;29;45357;-86
2023/07/14 01:04:54;;;;;;;;;15.33;15.33;;;;;22.61;51.58;100982.81;4859141;29;45409;-86
2023/07/14 01:07:26;;;;;;;;;21.00;19.00;;;;;22.55;51.81;100973.06;4859095;29;45737;-85
2023/07/14 01:09:55;;;;;;;;;17.67;17.67;;;;;22.53;51.95;100981.22;4873855;29;46031;-86
2023/07/14 01:12:28;;;;;;;;;24.67;24.33;;;;;22.54;51.82;100976.69;4857144;29;44877;-87
2023/07/14 01:14:57;;;;;;;;;20.67;19.67;;;;;22.48;52.26;100966.97;4857101;29;45511;-87
2023/07/14 01:17:27;;;;;;;;;26.67;24.00;;;;;22.47;52.25;100964.28;4872631;29;45349;-87
2023/07/14 01:20:11;;;;;;;;;20.00;19.67;;;;;22.47;51.74;100969.72;4872107;29;45551;-87
2023/07/14 01:22:56;;;;;;;;;20.33;19.00;;;;;22.46;52.44;100973.34;4872976;29;45685;-86
2023/07/14 01:25:27;;;;;;;;;17.33;17.33;;;;;22.40;52.71;100973.53;4856434;29;45387;-86
2023/07/14 01:27:53;;;;;;;;;27.00;25.00;;;;;22.15;52.70;100937.22;4855814;29;45295;-86
2023/07/14 01:30:19;;;;;;;;;21.00;20.67;;;;;22.25;52.63;100955.94;4853848;29;47513;-86
2023/07/14 01:32:47;;;;;;;;;23.67;21.00;;;;;22.23;52.68;100945.09;4853559;29;45313;-86
2023/07/14 01:35:13;;;;;;;;;23.00;22.00;;;;;22.17;52.86;100937.19;4869766;29;45336;-86
2023/07/14 01:37:39;;;;;;;;;27.00;25.33;;;;;22.14;53.03;100954.41;4873207;29;45712;-86
2023/07/14 01:40:15;;;;;;;;;24.33;20.00;;;;;22.18;53.27;100944.38;4855003;29;45427;-86
2023/07/14 01:42:43;;;;;;;;;12.67;11.67;;;;;22.14;52.88;100949.00;4855451;29;45472;-85
2023/07/14 01:45:13;;;;;;;;;18.33;18.00;;;;;22.16;53.17;100954.38;4872662;29;45302;-86
2023/07/14 01:47:42;;;;;;;;;23.67;20.33;;;;;22.11;53.29;100948.19;4855914;29;45392;-85
2023/07/14 01:50:18;;;;;;;;;17.67;17.00;;;;;22.06;53.77;100937.50;4872891;29;45296;-86
2023/07/14 01:52:45;;;;;;;;;16.67;15.00;;;;;22.04;53.97;100939.38;4856924;29;45371;-86
2023/07/14 01:55:18;;;;;;;;;12.67;12.67;;;;;22.08;53.86;100932.94;4872309;29;44843;-86
2023/07/14 01:57:47;;;;;;;;;11.33;11.00;;;;;22.06;53.86;100931.22;4858143;29;45341;-86
2023/07/14 02:00:13;;;;;;;;;17.67;17.00;;;;;21.97;54.17;100927.81;4873895;29;46258;-86
2023/07/14 02:02:41;;;;;;;;;18.00;15.33;;;;;21.97;54.45;100922.41;4857697;29;45400;-86
2023/07/14 02:05:21;;;;;;;;;13.00;13.00;;;;;21.97;54.04;100926.94;4858898;29;45401;-86
2023/07/14 02:07:47;;;;;;;;;13.33;13.33;;;;;21.87;54.02;100920.91;4858353;29;44938;-86
2023/07/14 02:10:20;;;;;;;;;14.00;12.67;;;;;21.94;53.96;100924.34;4857164;29;47361;-87
2023/07/14 02:12:47;;;;;;;;;19.00;14.67;;;;;21.85;54.21;100919.19;4857225;29;46140;-86
2023/07/14 02:15:19;;;;;;;;;18.33;14.00;;;;;21.90;54.75;100930.78;4856816;29;45539;-87
2023/07/14 02:17:47;;;;;;;;;20.00;17.00;;;;;21.78;54.41;100922.09;4856284;29;44899;-86
2023/07/14 02:20:39;;;;;;;;;14.67;14.67;;;;;21.87;54.73;100915.50;4856221;29;47690;-86
2023/07/14 02:23:09;;;;;;;;;20.67;18.67;;;;;21.76;55.13;100926.66;4872990;29;45277;-86
2023/07/14 02:25:43;;;;;;;;;16.67;13.67;;;;;21.77;55.33;100933.88;4857425;29;44814;-87
2023/07/14 02:28:13;;;;;;;;;19.67;16.67;;;;;21.67;55.65;100921.53;4875362;29;45446;-86
2023/07/14 02:30:44;;;;;;;;;20.00;19.67;;;;;21.62;55.45;100907.22;4874693;28;45646;-86
2023/07/14 02:33:22;;;;;;;;;15.00;15.00;;;;;21.70;55.22;100912.44;4874040;29;45749;-86
2023/07/14 02:36:13;;;;;;;;;16.33;16.00;;;;;21.49;55.78;100881.44;4859012;29;45193;-87
2023/07/14 02:38:39;;;;;;;;;16.00;16.00;;;;;21.51;55.90;100906.63;4857998;29;45909;-87
2023/07/14 02:41:18;;;;;;;;;20.00;17.00;;;;;21.62;56.42;100918.06;4874362;28;45151;-86
2023/07/14 02:43:49;;;;;;;;;17.67;16.67;;;;;21.51;56.22;100912.97;4858000;29;45751;-87
2023/07/14 02:46:14;;;;;;;;;17.67;17.67;;;;;21.47;56.63;100921.19;4875658;28;45579;-86
2023/07/14 02:48:42;;;;;;;;;16.00;15.33;;;;;21.40;57.04;100908.75;4873548;28;45430;-87
2023/07/14 02:51:09;;;;;;;;;19.67;17.33;;;;;21.41;56.95;100910.50;4856723;29;47115;-86
2023/07/14 02:53:34;;;;;;;;;16.33;16.33;;;;;21.36;56.95;100908.81;4873088;28;45760;-87
2023/07/14 02:56:00;;;;;;;;;17.33;17.00;;;;;21.37;57.14;100918.72;4857111;29;45342;-86
2023/07/14 02:58:25;;;;;;;;;17.67;17.00;;;;;21.32;56.93;100909.84;4856870;29;45386;-87
2023/07/14 03:00:51;;;;;;;;;18.67;15.33;;;;;21.35;57.08;100915.19;4858163;29;46746;-86
2023/07/14 03:03:17;;;;;;;;;15.33;14.00;;;;;21.32;57.51;100893.59;4874928;28;45088;-86
2023/07/14 03:05:43;;;;;;;;;19.00;19.00;;;;;21.37;57.42;100907.91;4858012;29;45518;-86
2023/07/14 03:08:16;;;;;;;;;17.67;16.67;;;;;21.36;57.38;100895.28;4857476;28;45746;-86
2023/07/14 03:10:43;;;;;;;;;15.00;14.00;;;;;21.33;57.46;100889.97;4857848;28;47000;-86
2023/07/14 03:13:09;;;;;;;;;17.33;15.33;;;;;21.28;57.95;100889.22;4855900;29;45424;-86
2023/07/14 03:15:34;;;;;;;;;20.67;20.67;;;;;21.26;57.59;100882.94;4855087;29;45306;-87
2023/07/14 03:18:01;;;;;;;;;18.67;18.67;;;;;21.28;58.32;100878.38;4855371;29;45288;-86
2023/07/14 03:20:29;;;;;;;;;22.00;20.33;;;;;21.19;59.39;100873.25;4856186;29;46987;-86
2023/07/14 03:22:54;;;;;;;;;26.33;24.67;;;;;21.06;59.22;100866.41;4856051;29;45597;-86
2023/07/14 03:25:19;;;;;;;;;21.33;19.67;;;;;21.12;59.77;100888.75;4872645;28;45353;-86
2023/07/14 03:27:46;;;;;;;;;22.00;21.33;;;;;21.05;59.32;100875.47;4854619;29;45393;-86
2023/07/14 03:30:14;;;;;;;;;23.00;20.33;;;;;21.16;59.15;100886.84;4870965;28;45476;-86
2023/07/14 03:32:40;;;;;;;;;23.33;21.67;;;;;21.16;59.15;100876.03;4854891;29;44825;-86
2023/07/14 03:35:07;;;;;;;;;24.33;20.67;;;;;21.17;59.03;100859.75;4854795;29;45469;-86
2023/07/14 03:37:40;;;;;;;;;22.00;21.67;;;;;21.23;59.47;100874.03;4871249;29;45406;-86
2023/07/14 03:40:09;;;;;;;;;16.67;14.67;;;;;21.24;60.22;100863.19;4854798;29;46898;-86
2023/07/14 03:42:37;;;;;;;;;22.67;21.00;;;;;21.21;59.70;100854.25;4855745;29;44805;-86
2023/07/14 03:45:03;;;;;;;;;28.00;24.00;;;;;21.18;59.94;100858.81;4869884;29;45399;-87
2023/07/14 03:47:29;;;;;;;;;24.33;24.33;;;;;21.28;59.91;100863.97;4871783;29;45350;-87
2023/07/14 03:49:55;;;;;;;;;25.00;22.33;;;;;21.13;60.46;100846.38;4871120;29;46973;-86
2023/07/14 03:52:22;;;;;;;;;27.00;25.00;;;;;21.23;60.19;100858.72;4856450;29;45454;-86
2023/07/14 03:54:47;;;;;;;;;22.00;21.67;;;;;21.24;60.13;100854.19;4854844;28;45162;-86
2023/07/14 03:57:13;;;;;;;;;22.00;21.33;;;;;21.23;60.46;100853.31;4855496;29;44812;-86
2023/07/14 03:59:38;;;;;;;;;21.00;20.33;;;;;21.14;60.87;100840.03;4854707;29;46871;-86
2023/07/14 04:02:04;;;;;;;;;21.33;21.33;;;;;21.23;60.58;100846.97;4870854;29;45291;-86
2023/07/14 04:04:29;;;;;;;;;24.00;20.33;;;;;21.28;60.76;100856.75;4870024;28;45769;-87
2023/07/14 04:06:55;;;;;;;;;26.33;23.33;;;;;21.29;60.83;100854.91;4853536;29;45408;-87
2023/07/14 04:09:20;;;;;;;;;22.33;20.00;;;;;21.29;60.89;100853.13;4854555;29;47098;-87
2023/07/14 04:11:46;;;;;;;;;20.67;20.67;;;;;21.32;60.63;100853.03;4854109;29;45440;-86
2023/07/14 04:14:18;;;;;;;;;23.33;23.33;;;;;21.43;60.81;100849.16;4870904;29;45322;-87
2023/07/14 04:16:43;;;;;;;;;17.33;17.00;;;;;21.25;60.45;100839.72;4857312;29;44938;-85
2023/07/14 04:19:09;;;;;;;;;20.00;20.00;;;;;21.33;60.43;100833.16;4858656;29;46881;-85
2023/07/14 04:21:34;;;;;;;;;21.33;19.67;;;;;21.37;60.06;100839.38;4856344;29;45347;-86
2023/07/14 04:24:00;;;;;;;;;17.67;17.67;;;;;21.43;60.08;100850.06;4856732;29;44846;-86
2023/07/14 04:26:27;;;;;;;;;20.33;20.33;;;;;21.50;59.48;100839.94;4856164;29;45399;-86
2023/07/14 04:28:54;;;;;;;;;18.00;16.33;;;;;21.47;59.28;100845.41;4871327;29;46668;-86
2023/07/14 04:31:28;;;;;;;;;18.67;15.33;;;;;21.46;59.14;100830.13;4874200;28;45688;-86
2023/07/14 04:33:54;;;;;;;;;20.67;17.67;;;;;21.47;59.76;100829.19;4873744;29;44869;-86
2023/07/14 04:36:20;;;;;;;;;17.33;16.67;;;;;21.51;59.50;100826.38;4856733;29;44893;-86
2023/07/14 04:39:07;;;;;;;;;16.00;15.00;;;;;21.64;59.50;100834.13;4855684;29;47739;-86
2023/07/14 04:41:34;;;;;;;;;20.00;19.00;;;;;21.56;59.44;100824.41;4856494;29;44721;-86
2023/07/14 04:44:16;;;;;;;;;17.00;16.33;;;;;21.63;59.14;100814.25;4857654;29;45416;-86
2023/07/14 04:46:43;;;;;;;;;18.67;16.67;;;;;21.60;59.65;100824.31;4857451;29;45445;-86
2023/07/14 04:49:10;;;;;;;;;19.67;17.00;;;;;21.53;59.46;100823.59;4857679;29;46386;-87
2023/07/14 04:52:16;;;;;;;;;16.00;14.33;;;;;21.64;58.92;100831.41;4855826;29;45307;-86
2023/07/14 04:54:41;;;;;;;;;18.33;17.33;;;;;21.51;59.36;100809.22;4874195;28;44789;-86
2023/07/14 04:57:07;;;;;;;;;17.00;16.67;;;;;21.50;59.70;100792.09;4860652;29;44888;-86
2023/07/14 04:59:34;;;;;;;;;17.33;14.33;;;;;21.49;59.51;100774.13;4859759;29;47783;-85
2023/07/14 05:01:59;;;;;;;;;17.33;16.00;;;;;21.51;59.78;100774.03;4859093;29;45240;-85
2023/07/14 05:04:40;;;;;;;;;17.00;17.00;;;;;21.57;59.34;100769.34;4874332;28;44761;-86
2023/07/14 05:07:17;;;;;;;;;17.00;16.33;;;;;21.54;59.59;100755.03;4874806;28;45334;-86
2023/07/14 05:09:42;;;;;;;;;15.00;14.00;;;;;21.48;59.85;100758.78;4856780;29;46926;-86
2023/07/14 05:12:08;;;;;;;;;19.00;15.33;;;;;21.45;60.03;100744.47;4859147;29;44876;-85
2023/07/14 05:14:33;;;;;;;;;17.00;15.33;;;;;21.47;59.83;100748.91;4875971;29;44854;-86
2023/07/14 05:16:58;;;;;;;;;13.00;12.33;;;;;21.51;60.00;100745.19;4857623;28;45560;-86
2023/07/14 05:19:24;;;;;;;;;11.33;11.33;;;;;21.51;59.75;100723.53;4874023;29;45978;-86
2023/07/14 05:21:52;;;;;;;;;18.33;13.00;;;;;21.43;59.56;100703.03;4855964;29;44848;-85
2023/07/14 05:24:18;;;;;;;;;12.00;12.00;;;;;21.45;59.80;100704.78;4874400;29;45221;-86
2023/07/14 05:26:44;;;;;;;;;12.33;12.33;;;;;21.62;59.87;100734.00;4874731;28;45838;-86
2023/07/14 05:29:10;;;;;;;;;13.33;13.00;;;;;21.60;60.40;100737.72;4857089;29;47660;-86
2023/07/14 05:31:39;;;;;;;;;13.67;13.67;;;;;21.73;60.90;100748.09;4858220;29;44757;-87
2023/07/14 05:34:05;;;;;;;;;21.00;17.67;;;;;21.64;60.78;100734.84;4858203;29;45503;-86
2023/07/14 05:36:30;;;;;;;;;11.33;9.67;;;;;21.69;60.98;100729.28;4874668;29;45462;-86
2023/07/14 05:38:56;;;;;;;;;10.67;10.00;;;;;21.61;60.57;100734.06;4859231;29;46994;-86
2023/07/14 05:41:24;;;;;;;;;12.67;10.67;;;;;21.77;60.32;100736.25;4873911;28;45480;-87
2023/07/14 05:43:50;;;;;;;;;15.00;10.67;;;;;21.84;60.05;100744.16;4856954;29;45309;-87
2023/07/14 05:46:15;;;;;;;;;6.67;6.67;;;;;21.85;59.28;100729.66;4856448;29;45339;-87
2023/07/14 05:48:41;;;;;;;;;6.00;6.00;;;;;21.91;58.69;100741.19;4857786;29;46793;-87
2023/07/14 05:51:09;;;;;;;;;11.00;10.00;;;;;22.01;58.23;100738.19;4858770;29;45337;-86
2023/07/14 05:53:34;;;;;;;;;8.00;8.00;;;;;21.86;58.12;100712.50;4875199;29;45406;-86
2023/07/14 05:56:00;;;;;;;;;6.00;6.00;;;;;21.76;57.74;100711.91;4858808;29;45495;-86
2023/07/14 05:58:26;;;;;;;;;7.33;7.00;;;;;21.90;57.24;100746.66;4874333;29;45682;-86
2023/07/14 06:00:54;;;;;;;;;6.67;6.33;;;;;21.87;56.91;100719.69;4857974;29;45467;-87
2023/07/14 06:03:20;;;;;;;;;6.00;6.00;;;;;21.80;56.85;100707.28;4857312;29;45462;-86
2023/07/14 06:05:47;;;;;;;;;9.00;5.67;;;;;21.89;56.86;100718.69;4875185;29;45350;-86
2023/07/14 06:08:18;;;;;;;;;8.33;6.33;;;;;21.89;56.84;100701.56;4854123;29;46981;-87
2023/07/14 06:10:44;;;;;;;;;8.33;6.33;;;;;22.05;56.35;100716.34;4854989;29;45431;-87
2023/07/14 06:13:09;;;;;;;;;6.00;5.00;;;;;21.93;55.87;100697.81;4871605;29;45445;-86
2023/07/14 06:15:38;;;;;;;;;6.00;6.00;;;;;22.20;55.53;100728.50;4873664;29;45420;-86
2023/07/14 06:18:03;;;;;;;;;8.00;8.00;;;;;22.23;55.88;100733.78;4876592;28;45825;-87
2023/07/14 06:20:28;;;;;;;;;8.00;6.67;;;;;22.37;55.69;100741.47;4875333;28;45392;-86
2023/07/14 06:22:54;;;;;;;;;7.33;6.00;;;;;22.22;55.50;100696.81;4857194;29;45810;-86
2023/07/14 06:25:22;;;;;;;;;6.33;6.33;;;;;22.49;55.05;100718.50;4858003;29;45478;-85
2023/07/14 06:27:48;;;;;;;;;6.67;6.67;;;;;22.56;54.42;100731.78;4874501;28;45731;-86
2023/07/14 06:30:16;;;;;;;;;4.00;4.00;;;;;22.55;54.23;100708.31;4858040;29;45361;-85
2023/07/14 06:32:43;;;;;;;;;5.33;5.33;;;;;22.62;53.47;100700.81;4875185;29;45417;-85
2023/07/14 06:35:10;;;;;;;;;7.00;6.00;;;;;22.67;53.79;100689.84;4873902;29;45471;-86
2023/07/14 06:37:38;;;;;;;;;5.00;5.00;;;;;22.93;52.73;100692.44;4857716;29;47392;-87
2023/07/14 06:40:07;;;;;;;;;8.33;6.00;;;;;22.83;52.88;100672.03;4858859;29;44905;-86
2023/07/14 06:42:33;;;;;;;;;8.00;8.00;;;;;22.95;52.43;100684.25;4859834;29;45591;-85
2023/07/14 06:44:58;;;;;;;;;7.00;5.00;;;;;23.01;51.99;100699.41;4873966;29;44917;-85
2023/07/14 06:47:27;;;;;;;;;7.67;7.67;;;;;23.06;52.08;100686.59;4858304;29;46965;-86
2023/07/14 06:49:52;;;;;;;;;6.00;6.00;;;;;22.94;51.97;100687.91;4873959;29;45521;-87
2023/07/14 06:52:17;;;;;;;;;7.67;7.00;;;;;22.91;51.97;100682.59;4856204;29;45362;-86
2023/07/14 06:54:45;;;;;;;;;6.67;6.67;;;;;22.86;51.84;100679.16;4872768;29;44907;-86
2023/07/14 06:57:10;;;;;;;;;7.00;7.00;;;;;22.99;51.89;100699.47;4854434;29;45696;-86
2023/07/14 06:59:36;;;;;;;;;6.67;5.67;;;;;23.08;52.29;100679.28;4853982;29;45402;-86
2023/07/14 07:02:01;;;;;;;;;6.67;6.67;;;;;23.20;51.33;100689.63;4853894;29;45754;-86
2023/07/14 07:04:27;;;;;;;;;7.00;7.00;;;;;23.17;50.97;100668.06;4870345;29;45421;-85
2023/07/14 07:06:53;;;;;;;;;11.00;8.00;;;;;23.27;50.17;100680.31;4870872;29;45549;-86
2023/07/14 07:09:19;;;;;;;;;6.67;6.67;;;;;23.32;50.55;100678.28;4872503;29;45426;-85
2023/07/14 07:11:44;;;;;;;;;6.00;6.00;;;;;23.44;50.07;100670.63;4857597;29;44889;-85
2023/07/14 07:14:09;;;;;;;;;5.33;5.33;;;;;23.51;49.94;100667.59;4856361;29;45455;-85
2023/07/14 07:16:35;;;;;;;;;5.00;5.00;;;;;23.46;49.88;100633.44;4857979;29;46707;-85
2023/07/14 07:19:04;;;;;;;;;5.00;5.00;;;;;23.73;49.39;100661.25;4856963;29;45472;-86
2023/07/14 07:22:19;;;;;;;;;7.00;7.00;;;;;23.79;49.63;100660.16;4873201;29;45436;-87
2023/07/14 07:24:45;;;;;;;;;9.00;7.33;;;;;23.72;49.46;100652.25;4856356;29;44848;-86
2023/07/14 07:27:10;;;;;;;;;5.33;5.33;;;;;23.91;49.10;100654.22;4855819;29;47076;-86
2023/07/14 07:29:36;;;;;;;;;10.00;9.00;;;;;24.00;49.27;100653.81;4872753;29;45369;-86
2023/07/14 07:32:03;;;;;;;;;7.00;7.00;;;;;24.05;48.45;100646.34;4856434;29;45231;-86
2023/07/14 07:34:29;;;;;;;;;5.00;5.00;;;;;24.29;48.96;100660.69;4872951;29;45487;-85
2023/07/14 07:36:54;;;;;;;;;7.00;7.00;;;;;24.21;48.30;100635.69;4873527;28;46412;-86
2023/07/14 07:39:20;;;;;;;;;8.67;8.67;;;;;24.46;48.31;100659.03;4874355;28;45283;-86
2023/07/14 07:41:45;;;;;;;;;13.67;9.00;;;;;24.55;47.35;100651.41;4872827;28;45532;-86
2023/07/14 07:44:11;;;;;;;;;4.67;4.67;;;;;24.54;47.50;100644.22;4872518;29;44830;-87
2023/07/14 07:46:37;;;;;;;;;7.00;5.67;;;;;24.51;47.83;100619.88;4872981;29;45425;-86
2023/07/14 07:49:03;;;;;;;;;6.00;6.00;;;;;24.76;46.90;100637.75;4856772;28;45670;-86
2023/07/14 07:51:30;;;;;;;;;8.00;6.67;;;;;24.76;46.43;100629.59;4872779;28;45447;-86
2023/07/14 07:53:56;;;;;;;;;6.67;5.00;;;;;24.75;46.41;100614.25;4873353;28;45337;-85
2023/07/14 07:56:21;;;;;;;;;7.00;6.00;;;;;24.82;46.41;100612.13;4856288;28;47280;-85
2023/07/14 07:58:47;;;;;;;;;9.00;7.33;;;;;24.93;46.62;100610.66;4872136;29;45406;-85
2023/07/14 08:01:23;;;;;;;;;7.33;7.00;;;;;25.10;46.30;100614.41;4873477;28;45149;-86
2023/07/14 08:03:51;;;;;;;;;8.33;6.00;;;;;25.06;46.09;100612.78;4870767;29;44870;-86
2023/07/14 08:06:17;;;;;;;;;6.00;6.00;;;;;25.08;46.46;100591.81;4873352;28;45403;-86
2023/07/14 08:08:45;;;;;;;;;6.67;6.67;;;;;25.31;46.13;100613.38;4855757;29;44780;-86
2023/07/14 08:11:12;;;;;;;;;7.00;5.33;;;;;25.29;45.87;100600.81;4871266;29;45297;-86
2023/07/14 08:13:40;;;;;;;;;6.00;6.00;;;;;25.39;45.37;100603.94;4855583;29;45419;-86
2023/07/14 08:16:06;;;;;;;;;7.00;7.00;;;;;25.39;45.32;100601.22;4872253;28;46906;-85
2023/07/14 08:18:32;;;;;;;;;7.00;7.00;;;;;25.48;45.60;100600.78;4871092;29;45395;-86
2023/07/14 08:20:58;;;;;;;;;4.67;4.67;;;;;25.64;45.08;100601.75;4854876;29;45189;-86
2023/07/14 08:23:24;;;;;;;;;6.00;6.00;;;;;25.70;45.15;100587.81;4871851;29;45379;-86
2023/07/14 08:25:52;;;;;;;;;8.00;7.00;;;;;26.05;43.75;100615.09;4854563;29;45205;-87
2023/07/14 08:28:18;;;;;;;;;6.00;6.00;;;;;25.97;44.46;100590.09;4870944;29;45817;-86
2023/07/14 08:30:49;;;;;;;;;6.67;6.67;;;;;26.13;44.25;100601.06;4858113;29;45333;-86
2023/07/14 08:33:15;;;;;;;;;6.33;6.33;;;;;26.18;44.18;100589.91;4877916;29;45373;-87
2023/07/14 08:35:40;;;;;;;;;5.00;5.00;;;;;26.38;43.57;100591.56;4858317;29;46707;-86
2023/07/14 08:38:06;;;;;;;;;7.33;6.33;;;;;26.56;42.93;100574.19;4858385;29;45397;-85
2023/07/14 08:41:21;;;;;;;;;7.00;7.00;;;;;26.70;42.59;100581.66;4875583;29;45552;-85
2023/07/14 08:44:25;;;;;;;;;5.67;5.67;;;;;26.73;42.89;100581.50;4875326;29;45360;-85
2023/07/14 08:47:18;;;;;;;;;9.33;7.33;;;;;27.15;42.58;100569.13;4874174;29;47066;-86
2023/07/14 08:49:56;;;;;;;;;6.00;6.00;;;;;27.54;42.62;100554.97;4875918;29;45609;-86
2023/07/14 08:52:26;;;;;;;;;7.67;7.67;;;;;27.78;41.69;100550.88;4876783;29;45277;-86
2023/07/14 08:55:02;;;;;;;;;6.67;6.67;;;;;28.03;41.90;100551.13;4859664;29;45332;-86
2023/07/14 08:57:30;;;;;;;;;5.00;4.33;;;;;28.16;39.28;100555.84;4873757;29;47357;-86
2023/07/14 09:00:00;;;;;;;;;6.00;6.00;;;;;28.06;38.86;100534.56;4857839;29;44925;-86
2023/07/14 09:02:36;;;;;;;;;8.00;7.00;;;;;28.06;40.15;100529.09;4856341;29;45430;-86
2023/07/14 09:08:28;;;;;;;;;6.67;6.67;;;;;28.62;39.59;100537.44;4874623;29;45407;-86
2023/07/14 09:11:26;;;;;;;;;5.00;5.00;;;;;28.82;39.80;100516.09;4874263;29;45325;-86
2023/07/14 09:14:28;;;;;;;;;5.00;5.00;;;;;28.85;39.33;100527.72;4858669;29;45546;-86
2023/07/14 09:17:04;;;;;;;;;4.67;4.33;;;;;28.65;38.25;100520.81;4874338;29;45467;-86
2023/07/14 09:20:10;;;;;;;;;4.33;4.33;;;;;28.66;37.75;100518.94;4858001;29;46891;-86
2023/07/14 09:23:02;;;;;;;;;3.33;3.33;;;;;28.57;38.00;100525.03;4844237;29;45469;-86
2023/07/14 09:25:40;;;;;;;;;4.00;4.00;;;;;28.40;38.44;100505.09;4858294;29;45364;-86
2023/07/14 09:28:49;;;;;;;;;5.00;5.00;;;;;28.25;37.06;100492.38;4873704;29;45519;-87
2023/07/14 09:31:40;;;;;;;;;6.33;5.00;;;;;28.16;38.81;100502.06;4863966;29;45582;-87
2023/07/14 09:34:24;;;;;;;;;4.00;4.00;;;;;28.16;38.54;100501.16;4855187;29;45342;-87
2023/07/14 09:36:54;;;;;;;;;5.00;5.00;;;;;28.17;38.20;100497.47;4857026;29;45310;-87
2023/07/14 09:39:32;;;;;;;;;5.67;5.67;;;;;28.01;38.68;100464.75;4856314;29;45403;-86
2023/07/14 09:42:01;;;;;;;;;5.67;4.33;;;;;28.07;37.49;100469.81;4872294;28;45380;-87
2023/07/14 09:44:26;;;;;;;;;6.67;6.67;;;;;27.89;36.71;100461.78;4871892;28;45401;-87
2023/07/14 09:46:53;;;;;;;;;5.33;4.00;;;;;27.71;36.92;100447.41;4855007;29;45345;-87
2023/07/14 09:49:30;;;;;;;;;5.33;5.33;;;;;27.70;37.11;100472.97;4855253;29;45386;-87
2023/07/14 09:52:10;;;;;;;;;6.00;6.00;;;;;27.76;37.29;100470.84;4855131;29;47197;-87
2023/07/14 10:01:24;;;;;;;;;6.00;5.00;;;;;28.07;37.51;100448.81;4874038;29;45489;-86
2023/07/14 10:03:54;;;;;;;;;4.67;4.67;;;;;28.16;37.46;100446.47;4874858;28;46278;-86
2023/07/14 10:06:25;;;;;;;;;3.00;3.00;;;;;28.27;37.38;100438.47;4875107;28;45376;-86
2023/07/14 10:09:11;;;;;;;;;3.33;3.33;;;;;28.35;36.67;100443.44;4873310;29;45308;-86
2023/07/14 10:11:43;;;;;;;;;6.00;4.67;;;;;28.40;35.99;100438.53;4872966;29;45332;-86
2023/07/14 10:14:19;;;;;;;;;5.33;5.33;;;;;28.37;37.07;100439.63;4857675;29;46960;-86
2023/07/14 10:16:45;;;;;;;;;5.33;4.33;;;;;28.31;36.35;100432.69;4857104;29;44844;-87
2023/07/14 10:19:19;;;;;;;;;4.00;4.00;;;;;28.37;36.41;100428.69;4874618;28;45102;-87
2023/07/14 10:22:17;;;;;;;;;4.33;4.00;;;;;28.53;37.14;100415.78;4858685;29;45361;-87
2023/07/14 10:24:53;;;;;;;;;6.33;6.33;;;;;28.44;36.78;100402.69;4874118;28;45667;-86
2023/07/14 10:27:30;;;;;;;;;4.67;4.67;;;;;28.58;35.21;100411.88;4841813;29;45892;-86
2023/07/14 10:30:14;;;;;;;;;3.33;3.33;;;;;28.69;36.16;100415.63;4872382;29;45467;-86
2023/07/14 10:32:53;;;;;;;;;3.33;3.33;;;;;28.80;36.09;100409.44;4858060;29;45392;-86
2023/07/14 10:35:23;;;;;;;;;5.33;5.33;;;;;28.85;35.03;100400.94;4874395;29;45794;-86
2023/07/14 10:38:02;;;;;;;;;3.00;3.00;;;;;28.87;35.57;100413.53;4873443;29;45743;-86
2023/07/14 10:40:33;;;;;;;;;5.00;5.00;;;;;28.95;35.83;100387.50;4874580;28;45388;-86
2023/07/14 10:43:04;;;;;;;;;4.33;4.33;;;;;29.19;34.92;100394.06;4858355;29;45840;-86
2023/07/14 10:45:35;;;;;;;;;5.00;5.00;;;;;29.42;35.45;100391.56;4858567;29;47072;-86
2023/07/14 10:48:13;;;;;;;;;5.33;3.00;;;;;29.65;35.17;100379.84;4873778;29;45590;-86
2023/07/14 10:51:29;;;;;;;;;7.33;7.00;;;;;29.86;34.07;100374.72;4875123;29;45354;-86
2023/07/14 10:54:10;;;;;;;;;3.75;3.00;;;;;29.73;33.66;100348.28;4797968;29;45466;-86
2023/07/14 10:57:05;;;;;;;;;2.67;2.67;;;;;29.78;34.18;100357.06;4783292;29;46977;-86
2023/07/14 10:59:58;;;;;;;;;5.00;4.67;;;;;29.88;33.94;100358.16;4799165;29;45626;-86
2023/07/14 11:02:34;;;;;;;;;3.67;3.33;;;;;29.97;34.22;100348.38;4783067;29;44890;-87
2023/07/14 11:05:08;;;;;;;;;4.00;4.00;;;;;30.16;32.85;100350.63;4798106;29;45490;-87
2023/07/14 11:07:34;;;;;;;;;4.00;4.00;;;;;30.19;32.64;100334.81;4782810;29;46871;-87
2023/07/14 11:10:12;;;;;;;;;3.33;3.33;;;;;30.20;33.03;100324.75;4783629;29;45537;-87
2023/07/14 11:12:51;;;;;;;;;2.00;2.00;;;;;30.22;31.69;100331.84;4783680;29;45418;-87
2023/07/14 11:15:26;;;;;;;;;2.67;2.33;;;;;30.17;33.13;100317.59;4782878;29;45230;-87
2023/07/14 11:18:37;;;;;;;;;2.25;2.00;;;;;30.24;32.87;100312.56;4797522;29;46144;-86
2023/07/14 11:21:16;;;;;;;;;1.67;1.67;;;;;30.22;33.39;100314.53;4761181;29;45436;-86
2023/07/14 11:24:20;;;;;;;;;2.67;2.67;;;;;30.09;32.21;100307.19;4746662;29;45368;-86
2023/07/14 11:26:54;;;;;;;;;3.00;3.00;;;;;30.01;33.13;100304.16;4762625;29;45452;-86
2023/07/14 11:29:22;;;;;;;;;5.00;3.33;;;;;29.96;33.29;100303.63;4782105;29;45754;-86
2023/07/14 11:31:58;;;;;;;;;3.00;3.00;;;;;29.99;33.44;100289.69;4782607;29;45754;-86
2023/07/14 11:34:38;;;;;;;;;2.67;2.67;;;;;30.04;33.28;100292.97;4782874;29;45571;-86
2023/07/14 11:37:41;;;;;;;;;4.00;4.00;;;;;30.08;33.30;100278.03;4782911;29;44802;-86
2023/07/14 11:40:20;;;;;;;;;4.00;4.00;;;;;30.03;32.89;100274.75;4779904;29;47407;-87
2023/07/14 11:42:53;;;;;;;;;2.67;2.67;;;;;29.92;33.52;100267.34;4781501;29;45486;-86
2023/07/14 11:45:23;;;;;;;;;3.00;3.00;;;;;29.96;33.75;100264.38;4782350;29;45408;-86
2023/07/14 11:47:51;;;;;;;;;3.67;3.67;;;;;29.95;32.95;100255.25;4781772;29;44785;-87
2023/07/14 11:50:17;;;;;;;;;5.00;5.00;;;;;29.91;32.98;100253.72;4796800;29;45256;-86